CheckWX is a tool to help pilots better visualize weather data.  It is not intended as a substitute for an official pre-flight weather briefing.

05:38:12 UTC

KEZM METAR
Heart of Georgia Regional Airport
Eastman, Georgia, USA
Current

23 mins ago

KEZM 240515Z AUTO 00000KT M1/4SM FG OVC004 15/15 A3005 RMK AO2 T01530153
Observed
Feb-24 @ 05:15 UTC
Visibility
1/4 SM
Flight Rules
LIFR
Conditions
Fog
Cloud Levels
  • Overcast at 400' AGL
Temperature
15°C / 59°F
Dewpoint
15°C / 59°F
Humidity
100%
Altimeter
30.05" Hg
Pressure
1017.62 hPa
Previous

43 mins ago

KEZM 240455Z AUTO 00000KT 1SM BR OVC004 16/15 A3005 RMK AO2 T01560154
Observed
Feb-24 @ 04:55 UTC
Visibility
1 SM
Flight Rules
LIFR
Conditions
Mist
Cloud Levels
  • Overcast at 400' AGL
Temperature
16°C / 61°F
Dewpoint
15°C / 59°F
Humidity
94%
Altimeter
30.05" Hg
Pressure
1017.62 hPa
Previous

1 hour ago

KEZM 240435Z AUTO 00000KT 2 1/2SM BR SCT004 16/16 A3006 RMK AO2 T01600159
Observed
Feb-24 @ 04:35 UTC
Visibility
2 1/2 SM
Flight Rules
IFR
Conditions
Mist
Cloud Levels
  • Scattered at 400' AGL
Temperature
16°C / 61°F
Dewpoint
16°C / 61°F
Humidity
100%
Altimeter
30.06" Hg
Pressure
1017.92 hPa